createdAt,value
2017-11-24T00:00:08.999Z,72.60
2017-11-24T00:02:42.616Z,72.60
2017-11-24T00:05:16.166Z,72.70
2017-11-24T00:07:49.841Z,72.90
2017-11-24T00:10:24.258Z,73.10
2017-11-24T00:12:58.058Z,73.00
2017-11-24T00:15:31.863Z,72.90
2017-11-24T00:18:06.155Z,73.50
2017-11-24T00:20:39.620Z,73.00
2017-11-24T00:23:13.974Z,72.70
2017-11-24T00:25:47.910Z,72.60
2017-11-24T00:28:21.667Z,72.60
2017-11-24T00:30:55.256Z,72.80
2017-11-24T00:33:29.018Z,72.80
2017-11-24T00:36:02.620Z,72.90
2017-11-24T00:38:36.329Z,73.10
2017-11-24T00:41:09.800Z,73.00
2017-11-24T00:43:43.429Z,72.90
2017-11-24T00:46:16.978Z,73.00
2017-11-24T00:48:50.514Z,72.80
2017-11-24T00:51:23.983Z,73.00
2017-11-24T00:53:57.532Z,73.20
2017-11-24T00:56:31.215Z,72.90
2017-11-24T00:59:04.787Z,73.00
2017-11-24T01:01:38.380Z,73.00
2017-11-24T01:04:12.706Z,73.00
2017-11-24T01:06:46.427Z,73.00
2017-11-24T01:09:20.760Z,73.00
2017-11-24T01:11:54.212Z,73.00
2017-11-24T01:14:28.487Z,72.90
2017-11-24T01:17:02.171Z,72.90
2017-11-24T01:19:35.780Z,73.00
2017-11-24T01:22:09.370Z,73.20
2017-11-24T01:24:43.699Z,73.10
2017-11-24T01:27:17.406Z,73.10
2017-11-24T01:29:50.899Z,73.10
2017-11-24T01:32:24.458Z,73.20
2017-11-24T01:34:58.014Z,73.40
2017-11-24T01:37:31.898Z,73.40
2017-11-24T01:40:05.612Z,73.50
2017-11-24T01:42:39.113Z,73.50
2017-11-24T01:45:12.802Z,73.50
2017-11-24T01:47:47.018Z,73.60
2017-11-24T01:50:21.214Z,73.50
2017-11-24T01:52:54.954Z,73.60
2017-11-24T01:55:28.643Z,73.50
2017-11-24T01:58:02.411Z,73.50
2017-11-24T02:00:36.056Z,73.70
2017-11-24T02:03:09.758Z,73.60
2017-11-24T02:05:44.239Z,73.80
2017-11-24T02:08:17.867Z,73.60
2017-11-24T02:10:51.487Z,73.80
2017-11-24T02:13:25.052Z,73.80
2017-11-24T02:15:58.687Z,74.10
2017-11-24T02:18:32.378Z,73.60
2017-11-24T02:21:05.984Z,73.60
2017-11-24T02:23:39.684Z,73.70
2017-11-24T02:26:14.216Z,73.60
2017-11-24T02:28:47.813Z,73.60
2017-11-24T02:31:21.351Z,74.10
2017-11-24T02:33:55.016Z,73.40
2017-11-24T02:36:28.614Z,73.40
2017-11-24T02:39:02.188Z,73.50
2017-11-24T02:41:36.615Z,73.60
2017-11-24T02:44:10.192Z,73.50
2017-11-24T02:46:43.845Z,73.70
2017-11-24T02:49:17.399Z,73.80
2017-11-24T02:51:51.011Z,73.70
2017-11-24T02:54:24.474Z,73.50
2017-11-24T02:56:58.133Z,73.60
2017-11-24T02:59:31.607Z,74.00
2017-11-24T03:02:05.231Z,73.50
2017-11-24T03:04:38.731Z,73.50
2017-11-24T03:07:12.475Z,73.10
2017-11-24T03:09:46.199Z,72.90
2017-11-24T03:12:19.806Z,72.80
2017-11-24T03:14:54.354Z,72.80
2017-11-24T03:17:28.123Z,72.70
2017-11-24T03:20:01.771Z,72.50
2017-11-24T03:22:35.471Z,72.20
2017-11-24T03:25:09.175Z,71.90
2017-11-24T03:27:43.667Z,71.80
2017-11-24T03:30:18.076Z,71.80
2017-11-24T03:32:51.823Z,71.60
2017-11-24T03:35:26.223Z,71.40
2017-11-24T03:37:59.790Z,71.40
2017-11-24T03:40:33.440Z,71.50
2017-11-24T03:43:07.147Z,71.30
2017-11-24T03:45:40.822Z,71.30
2017-11-24T03:48:14.403Z,71.30
2017-11-24T03:50:47.954Z,71.30
2017-11-24T03:53:22.163Z,71.10
2017-11-24T03:55:56.583Z,70.90
2017-11-24T03:58:30.082Z,70.90
2017-11-24T04:01:04.481Z,70.80
2017-11-24T04:03:38.182Z,70.70
2017-11-24T04:06:11.912Z,70.70
2017-11-24T04:08:45.464Z,70.50
2017-11-24T04:11:19.002Z,70.20
2017-11-24T04:13:53.514Z,70.10
2017-11-24T04:16:27.822Z,70.00
2017-11-24T04:19:01.354Z,70.00
2017-11-24T04:21:34.987Z,70.00
2017-11-24T04:24:08.758Z,70.10
2017-11-24T04:26:42.455Z,70.10
2017-11-24T04:29:16.138Z,69.80
2017-11-24T04:31:49.834Z,69.60
2017-11-24T04:34:23.462Z,69.70
2017-11-24T04:36:57.208Z,69.70
2017-11-24T04:39:30.870Z,69.70
2017-11-24T04:42:05.155Z,69.60
2017-11-24T04:44:38.788Z,69.60
2017-11-24T04:47:12.498Z,69.60
2017-11-24T04:49:46.071Z,70.30
2017-11-24T04:52:19.691Z,69.70
2017-11-24T04:54:53.634Z,69.90
2017-11-24T04:57:27.307Z,69.80
2017-11-24T05:00:00.902Z,69.80
2017-11-24T05:02:34.503Z,69.70
2017-11-24T05:05:08.067Z,69.70
2017-11-24T05:07:41.706Z,69.50
2017-11-24T05:10:15.270Z,69.50
2017-11-24T05:12:48.910Z,69.40
2017-11-24T05:15:22.480Z,69.40
2017-11-24T05:17:56.007Z,69.30
2017-11-24T05:20:29.606Z,69.20
2017-11-24T05:23:03.166Z,69.40
2017-11-24T05:25:36.871Z,69.20
2017-11-24T05:28:10.615Z,69.10
2017-11-24T05:30:44.115Z,69.10
2017-11-24T05:33:18.244Z,69.10
2017-11-24T05:35:52.722Z,69.10
2017-11-24T05:38:26.743Z,69.10
2017-11-24T05:41:01.282Z,69.00
2017-11-24T05:43:34.883Z,68.90
2017-11-24T05:46:08.481Z,69.00
2017-11-24T05:48:42.192Z,69.40
2017-11-24T05:51:15.891Z,68.70
2017-11-24T05:53:49.490Z,68.70
2017-11-24T05:56:23.058Z,68.70
2017-11-24T05:58:56.795Z,68.70
2017-11-24T06:01:30.295Z,69.00
2017-11-24T06:04:03.897Z,69.50
2017-11-24T06:06:38.513Z,70.00
2017-11-24T06:09:12.091Z,69.90
2017-11-24T06:11:45.718Z,70.20
2017-11-24T06:14:19.295Z,70.50
2017-11-24T06:16:52.879Z,70.60
2017-11-24T06:19:26.523Z,70.70
2017-11-24T06:22:00.123Z,70.70
2017-11-24T06:24:34.542Z,70.90
2017-11-24T06:27:08.094Z,71.00
2017-11-24T06:29:42.434Z,71.00
2017-11-24T06:32:16.027Z,71.10
2017-11-24T06:34:49.672Z,71.30
2017-11-24T06:37:23.263Z,71.60
2017-11-24T06:39:56.866Z,71.70
2017-11-24T06:42:30.572Z,72.20
2017-11-24T06:45:04.171Z,72.30
2017-11-24T06:47:37.875Z,72.40
2017-11-24T06:50:11.548Z,72.70
2017-11-24T06:52:45.075Z,72.80
2017-11-24T06:55:18.676Z,72.60
2017-11-24T06:57:52.175Z,72.90
2017-11-24T07:00:26.390Z,73.30
2017-11-24T07:02:59.975Z,73.20
2017-11-24T07:05:33.592Z,73.50
2017-11-24T07:08:07.215Z,73.50
2017-11-24T07:10:40.690Z,73.70
2017-11-24T07:13:14.498Z,73.70
2017-11-24T07:15:48.060Z,73.70
2017-11-24T07:18:21.763Z,73.60
2017-11-24T07:20:55.367Z,73.60
2017-11-24T07:23:28.948Z,73.50
2017-11-24T07:26:02.721Z,73.40
2017-11-24T07:28:36.407Z,73.60
2017-11-24T07:31:10.010Z,73.00
2017-11-24T07:33:44.325Z,72.70
2017-11-24T07:36:18.011Z,72.70
2017-11-24T07:38:51.590Z,72.60
2017-11-24T07:41:25.344Z,72.50
2017-11-24T07:43:59.049Z,72.40
2017-11-24T07:46:33.534Z,72.60
2017-11-24T07:49:07.165Z,72.60
2017-11-24T07:51:40.967Z,72.30
2017-11-24T07:54:14.567Z,72.40
2017-11-24T07:56:48.175Z,72.40
2017-11-24T07:59:21.619Z,72.20
2017-11-24T08:01:55.237Z,72.20
2017-11-24T08:04:29.303Z,72.00
2017-11-24T08:07:02.879Z,72.20
2017-11-24T08:09:36.683Z,72.30
2017-11-24T08:12:10.592Z,72.10
2017-11-24T08:14:44.395Z,72.00
2017-11-24T08:17:18.818Z,71.80
2017-11-24T08:19:53.235Z,71.80
2017-11-24T08:22:26.842Z,71.70
2017-11-24T08:25:00.334Z,71.70
2017-11-24T08:27:33.826Z,71.80
2017-11-24T08:30:07.448Z,71.80
2017-11-24T08:32:41.039Z,71.80
2017-11-24T08:35:14.591Z,71.60
2017-11-24T08:37:48.115Z,71.90
2017-11-24T08:40:21.800Z,71.80
2017-11-24T08:42:55.347Z,71.90
2017-11-24T08:45:29.114Z,71.90
2017-11-24T08:48:08.563Z,71.90
2017-11-24T08:50:42.191Z,71.90
2017-11-24T08:53:15.883Z,71.70
2017-11-24T08:55:50.203Z,72.80
2017-11-24T08:58:23.769Z,72.10
2017-11-24T09:00:57.403Z,72.10
2017-11-24T09:03:31.074Z,71.90
2017-11-24T09:06:04.607Z,71.90
2017-11-24T09:08:38.923Z,71.90
2017-11-24T09:11:12.491Z,71.90
2017-11-24T09:13:46.096Z,72.10
2017-11-24T09:16:19.735Z,72.00
2017-11-24T09:18:53.294Z,71.90
2017-11-24T09:21:26.822Z,71.90
2017-11-24T09:24:01.119Z,72.00
2017-11-24T09:26:35.526Z,72.00
2017-11-24T09:29:09.369Z,71.90
2017-11-24T09:31:43.175Z,71.90
2017-11-24T09:34:16.775Z,71.70
2017-11-24T09:36:50.478Z,71.70
2017-11-24T09:39:23.928Z,71.80
2017-11-24T09:41:57.379Z,71.80
2017-11-24T09:44:31.895Z,71.90
2017-11-24T09:47:05.442Z,71.90
2017-11-24T09:49:39.202Z,72.10
2017-11-24T09:52:12.877Z,71.90
2017-11-24T09:54:46.606Z,71.50
2017-11-24T09:57:20.258Z,71.80
2017-11-24T09:59:53.823Z,71.70
2017-11-24T10:02:27.363Z,71.50
2017-11-24T10:05:01.010Z,71.60
2017-11-24T10:07:34.499Z,71.40
2017-11-24T10:10:08.928Z,71.90
2017-11-24T10:12:42.499Z,71.80
2017-11-24T10:15:16.125Z,71.70
2017-11-24T10:17:49.807Z,71.60
2017-11-24T10:20:23.479Z,71.40
2017-11-24T10:22:57.695Z,71.60
2017-11-24T10:25:31.311Z,71.50
2017-11-24T10:28:05.635Z,71.50
2017-11-24T10:30:39.371Z,71.50
2017-11-24T10:33:13.143Z,71.40
2017-11-24T10:35:46.750Z,71.40
2017-11-24T10:38:20.383Z,71.50
2017-11-24T10:40:54.771Z,71.30
2017-11-24T10:43:28.362Z,71.30
2017-11-24T10:46:01.914Z,71.20
2017-11-24T10:48:35.599Z,71.10
2017-11-24T10:51:09.171Z,71.20
2017-11-24T10:53:42.559Z,71.00
2017-11-24T10:56:16.095Z,71.10
2017-11-24T10:58:49.661Z,70.80
2017-11-24T11:01:23.258Z,70.70
2017-11-24T11:03:56.898Z,70.90
2017-11-24T11:06:30.561Z,71.00
2017-11-24T11:09:04.791Z,71.20
2017-11-24T11:11:38.374Z,71.20
2017-11-24T11:14:11.911Z,71.30
2017-11-24T11:16:45.478Z,71.20
2017-11-24T11:19:19.062Z,71.20
2017-11-24T11:21:52.732Z,71.30
2017-11-24T11:24:26.170Z,71.10
2017-11-24T11:27:00.031Z,71.20
2017-11-24T11:29:33.832Z,71.30
2017-11-24T11:32:07.430Z,71.40
2017-11-24T11:34:40.983Z,71.50
2017-11-24T11:37:15.523Z,71.40
2017-11-24T11:39:49.242Z,71.30
2017-11-24T11:42:22.853Z,71.30
2017-11-24T11:44:56.469Z,71.50
2017-11-24T11:47:30.019Z,71.40
2017-11-24T11:50:04.583Z,71.70
2017-11-24T11:52:38.291Z,71.70
2017-11-24T11:55:12.086Z,71.80
2017-11-24T11:57:45.663Z,71.70
2017-11-24T12:00:19.271Z,71.70
2017-11-24T12:02:52.847Z,71.70
2017-11-24T12:05:26.595Z,71.90
2017-11-24T12:08:00.170Z,71.80
2017-11-24T12:10:33.775Z,71.60
2017-11-24T12:13:07.826Z,71.70
2017-11-24T12:15:41.430Z,71.70
2017-11-24T12:18:15.054Z,71.80
2017-11-24T12:20:49.427Z,71.60
2017-11-24T12:23:23.768Z,71.60
2017-11-24T12:25:57.363Z,71.50
2017-11-24T12:28:31.635Z,71.70
2017-11-24T12:31:05.265Z,71.70
2017-11-24T12:33:38.874Z,71.70
2017-11-24T12:36:12.468Z,71.70
2017-11-24T12:38:45.911Z,71.50
2017-11-24T12:41:20.350Z,71.60
2017-11-24T12:43:53.882Z,71.60
2017-11-24T12:46:27.491Z,71.60
2017-11-24T12:49:01.047Z,71.70
2017-11-24T12:51:34.670Z,71.60
2017-11-24T12:54:08.261Z,71.50
2017-11-24T12:56:41.887Z,71.30
2017-11-24T12:59:15.560Z,71.50
2017-11-24T13:01:49.363Z,71.70
2017-11-24T13:04:22.846Z,71.60
2017-11-24T13:06:57.210Z,71.70
2017-11-24T13:09:30.878Z,71.90
2017-11-24T13:12:04.475Z,72.60
2017-11-24T13:14:38.799Z,73.00
2017-11-24T13:17:12.531Z,72.90
2017-11-24T13:19:46.146Z,73.10
2017-11-24T13:22:19.838Z,73.20
2017-11-24T13:24:53.456Z,73.50
2017-11-24T13:27:27.942Z,73.70
2017-11-24T13:30:01.463Z,73.70
2017-11-24T13:32:34.903Z,74.00
2017-11-24T13:35:08.664Z,74.00
2017-11-24T13:37:42.758Z,74.00
2017-11-24T13:40:16.402Z,74.40
2017-11-24T13:42:49.979Z,74.10
2017-11-24T13:45:23.574Z,74.20
2017-11-24T13:47:57.283Z,74.30
2017-11-24T13:50:31.090Z,74.50
2017-11-24T13:53:04.656Z,74.40
2017-11-24T13:55:38.164Z,75.00
2017-11-24T13:58:11.834Z,74.90
2017-11-24T14:00:45.291Z,74.90
2017-11-24T14:03:18.995Z,75.60
2017-11-24T14:05:52.898Z,75.20
2017-11-24T14:08:27.220Z,74.60
2017-11-24T14:11:00.919Z,74.60
2017-11-24T14:13:34.523Z,74.40
2017-11-24T14:16:08.810Z,74.20
2017-11-24T14:18:42.643Z,74.20
2017-11-24T14:21:16.348Z,74.20
2017-11-24T14:23:49.947Z,74.60
2017-11-24T14:26:23.434Z,74.80
2017-11-24T14:28:57.008Z,74.40
2017-11-24T14:31:31.334Z,73.80
2017-11-24T14:34:05.652Z,73.80
2017-11-24T14:36:39.282Z,73.70
2017-11-24T14:39:12.780Z,73.70
2017-11-24T14:41:46.279Z,73.60
2017-11-24T14:44:20.405Z,73.90
2017-11-24T14:46:54.095Z,73.70
2017-11-24T14:49:27.699Z,73.90
2017-11-24T14:52:01.370Z,73.70
2017-11-24T14:54:34.998Z,73.70
2017-11-24T14:57:08.551Z,73.60
2017-11-24T14:59:42.202Z,73.40
2017-11-24T15:02:16.007Z,73.50
2017-11-24T15:04:49.714Z,73.00
2017-11-24T15:07:23.370Z,72.40
2017-11-24T15:09:57.023Z,73.00
2017-11-24T15:12:30.527Z,73.20
2017-11-24T15:15:04.123Z,73.20
2017-11-24T15:17:37.819Z,73.00
2017-11-24T15:20:12.206Z,73.60
2017-11-24T15:22:45.939Z,73.60
2017-11-24T15:25:19.495Z,72.70
2017-11-24T15:27:53.778Z,72.90
2017-11-24T15:30:27.563Z,73.30
2017-11-24T15:33:01.275Z,73.10
2017-11-24T15:35:35.551Z,73.30
2017-11-24T15:38:09.137Z,73.30
2017-11-24T15:40:42.676Z,73.20
2017-11-24T15:43:16.383Z,73.40
2017-11-24T15:45:50.095Z,73.00
2017-11-24T15:48:23.691Z,72.80
2017-11-24T15:50:57.391Z,72.70
2017-11-24T15:53:30.995Z,72.00
2017-11-24T15:56:05.325Z,72.10
2017-11-24T15:58:39.021Z,72.20
2017-11-24T16:01:12.629Z,72.30
2017-11-24T16:03:46.199Z,72.40
2017-11-24T16:06:19.798Z,72.30
2017-11-24T16:08:53.419Z,72.40
2017-11-24T16:11:27.033Z,72.00
2017-11-24T16:14:00.750Z,71.70
2017-11-24T16:16:34.531Z,71.00
2017-11-24T16:19:08.130Z,71.00
2017-11-24T16:21:41.935Z,70.50
2017-11-24T16:24:15.534Z,70.70
2017-11-24T16:26:49.111Z,70.00
2017-11-24T16:29:23.008Z,70.20
2017-11-24T16:31:56.543Z,70.60
2017-11-24T16:34:30.106Z,70.30
2017-11-24T16:37:03.746Z,70.20
2017-11-24T16:39:37.355Z,70.40
2017-11-24T16:42:10.843Z,70.60
2017-11-24T16:44:44.514Z,70.90
2017-11-24T16:47:18.384Z,70.80
2017-11-24T16:49:52.944Z,70.80
2017-11-24T16:52:26.547Z,70.80
2017-11-24T16:55:01.007Z,71.00
2017-11-24T16:57:34.598Z,71.00
2017-11-24T17:00:08.040Z,71.00
2017-11-24T17:02:41.613Z,70.80
2017-11-24T17:05:15.300Z,71.00
2017-11-24T17:07:48.900Z,70.80
2017-11-24T17:10:22.479Z,70.80
2017-11-24T17:12:55.998Z,69.80
2017-11-24T17:15:29.583Z,69.60
2017-11-24T17:18:04.020Z,70.00
2017-11-24T17:20:37.624Z,70.20
2017-11-24T17:23:11.222Z,70.20
2017-11-24T17:25:44.815Z,69.70
2017-11-24T17:28:18.534Z,69.80
2017-11-24T17:30:52.078Z,69.80
2017-11-24T17:33:25.728Z,69.70
2017-11-24T17:35:59.338Z,70.10
2017-11-24T17:38:32.939Z,69.80
2017-11-24T17:41:06.938Z,70.10
2017-11-24T17:43:40.644Z,70.20
2017-11-24T17:46:14.299Z,70.60
2017-11-24T17:48:47.827Z,70.90
2017-11-24T17:51:21.339Z,70.70
2017-11-24T17:53:54.907Z,70.40
2017-11-24T17:56:28.546Z,71.00
2017-11-24T17:59:02.142Z,71.10
2017-11-24T18:01:36.463Z,71.20
2017-11-24T18:04:10.167Z,71.20
2017-11-24T18:06:43.726Z,71.30
2017-11-24T18:09:17.326Z,71.70
2017-11-24T18:11:51.071Z,71.70
2017-11-24T18:14:26.003Z,71.90
2017-11-24T18:16:59.603Z,71.90
2017-11-24T18:19:33.204Z,72.20
2017-11-24T18:22:06.716Z,71.90
2017-11-24T18:24:40.412Z,72.20
2017-11-24T18:27:13.862Z,71.90
2017-11-24T18:29:47.598Z,71.80
2017-11-24T18:32:21.207Z,72.00
2017-11-24T18:34:55.495Z,71.70
2017-11-24T18:37:29.182Z,71.60
2017-11-24T18:40:03.001Z,71.90
2017-11-24T18:42:36.622Z,71.70
2017-11-24T18:45:10.239Z,71.80
2017-11-24T18:47:43.694Z,71.90
2017-11-24T18:50:17.282Z,72.00
2017-11-24T18:52:51.755Z,72.20
2017-11-24T18:55:25.462Z,72.10
2017-11-24T18:57:59.263Z,72.30
2017-11-24T19:00:32.766Z,72.30
2017-11-24T19:03:07.083Z,72.40
2017-11-24T19:05:40.671Z,72.40
2017-11-24T19:08:14.286Z,72.30
2017-11-24T19:10:47.730Z,72.00
2017-11-24T19:13:21.387Z,72.50
2017-11-24T19:15:54.987Z,72.20
2017-11-24T19:18:28.492Z,72.10
2017-11-24T19:21:02.183Z,72.20
2017-11-24T19:23:35.688Z,72.30
2017-11-24T19:26:09.283Z,72.30
2017-11-24T19:28:42.882Z,72.60
2017-11-24T19:31:16.433Z,72.80
2017-11-24T19:33:49.958Z,72.80
2017-11-24T19:36:24.286Z,72.70
2017-11-24T19:38:57.864Z,72.60
2017-11-24T19:41:31.443Z,72.70
2017-11-24T19:44:05.104Z,72.70
2017-11-24T19:46:38.703Z,72.50
2017-11-24T19:49:13.228Z,72.80
2017-11-24T19:51:46.831Z,72.70
2017-11-24T19:54:20.483Z,72.50
2017-11-24T19:56:54.030Z,72.70
2017-11-24T19:59:27.731Z,72.80
2017-11-24T20:02:01.403Z,72.90
2017-11-24T20:04:35.038Z,72.90
2017-11-24T20:07:08.739Z,72.70
2017-11-24T20:09:42.451Z,72.80
2017-11-24T20:12:16.902Z,73.00
2017-11-24T20:14:50.568Z,72.70
2017-11-24T20:17:24.271Z,72.90
2017-11-24T20:19:58.081Z,73.30
2017-11-24T20:22:31.674Z,73.30
2017-11-24T20:25:05.484Z,73.00
2017-11-24T20:27:40.515Z,73.40
2017-11-24T20:30:14.116Z,73.40
2017-11-24T20:32:48.535Z,73.30
2017-11-24T20:35:22.104Z,73.30
2017-11-24T20:37:55.743Z,73.40
2017-11-24T20:40:29.326Z,73.20
2017-11-24T20:43:02.943Z,73.10
2017-11-24T20:45:36.595Z,73.00
2017-11-24T20:48:10.934Z,73.00
2017-11-24T20:50:45.495Z,73.00
2017-11-24T20:53:19.286Z,73.20
2017-11-24T20:55:54.441Z,73.00
2017-11-24T20:58:28.743Z,73.10
2017-11-24T21:01:02.251Z,73.10
2017-11-24T21:03:36.557Z,72.60
2017-11-24T21:06:10.047Z,72.60
2017-11-24T21:08:43.866Z,72.20
2017-11-24T21:11:17.467Z,72.60
2017-11-24T21:13:50.963Z,72.50
2017-11-24T21:16:24.567Z,72.70
2017-11-24T21:18:58.259Z,72.60
2017-11-24T21:21:31.867Z,72.50
2017-11-24T21:24:05.415Z,72.60
2017-11-24T21:26:38.974Z,72.70
2017-11-24T21:29:12.670Z,72.50
2017-11-24T21:31:46.230Z,72.40
2017-11-24T21:34:19.770Z,72.30
2017-11-24T21:36:53.318Z,73.00
2017-11-24T21:39:27.179Z,72.70
2017-11-24T21:42:00.986Z,72.90
2017-11-24T21:44:34.755Z,72.60
2017-11-24T21:47:08.595Z,72.60
2017-11-24T21:49:42.200Z,72.30
2017-11-24T21:52:15.659Z,72.30
2017-11-24T21:54:49.290Z,72.20
2017-11-24T21:57:22.870Z,72.10
2017-11-24T21:59:57.288Z,72.40
2017-11-24T22:02:30.778Z,71.70
2017-11-24T22:05:04.527Z,72.00
2017-11-24T22:07:38.219Z,71.80
2017-11-24T22:10:11.883Z,71.60
2017-11-24T22:12:45.419Z,71.50
2017-11-24T22:15:19.122Z,71.50
2017-11-24T22:17:52.932Z,71.60
2017-11-24T22:20:26.527Z,71.80
2017-11-24T22:23:00.127Z,72.10
2017-11-24T22:25:34.247Z,71.70
2017-11-24T22:28:07.690Z,71.70
2017-11-24T22:30:42.603Z,71.90
2017-11-24T22:33:16.222Z,71.90
2017-11-24T22:35:49.874Z,71.50
2017-11-24T22:38:23.456Z,72.10
2017-11-24T22:40:57.038Z,72.00
2017-11-24T22:43:30.537Z,71.80
2017-11-24T22:46:04.278Z,72.10
2017-11-24T22:48:37.879Z,71.90
2017-11-24T22:51:11.386Z,71.70
2017-11-24T22:53:44.951Z,71.80
2017-11-24T22:56:18.578Z,72.00
2017-11-24T22:58:52.179Z,72.10
2017-11-24T23:01:25.779Z,72.10
2017-11-24T23:04:00.078Z,72.10
2017-11-24T23:06:33.912Z,72.00
2017-11-24T23:09:07.399Z,72.10
2017-11-24T23:11:41.083Z,72.30
2017-11-24T23:14:14.678Z,71.90
2017-11-24T23:16:48.310Z,71.90
2017-11-24T23:19:22.410Z,71.70
2017-11-24T23:21:56.023Z,72.00
2017-11-24T23:24:29.567Z,71.70
2017-11-24T23:27:03.917Z,71.50
2017-11-24T23:29:37.656Z,71.40
2017-11-24T23:32:11.351Z,71.50
2017-11-24T23:34:45.013Z,71.60
2017-11-24T23:37:19.470Z,72.70
2017-11-24T23:39:53.185Z,72.00
2017-11-24T23:42:26.878Z,71.70
2017-11-24T23:45:00.811Z,71.90
2017-11-24T23:47:35.206Z,71.80
2017-11-24T23:50:08.775Z,71.70
2017-11-24T23:52:42.426Z,71.80
2017-11-24T23:55:16.110Z,72.50
2017-11-24T23:57:49.623Z,71.80
